Create Tblcommutelog Verified Points Advance Search
| # | Trip ID | Id Commuter | Trip Date | Trip Num | Current Lat | Current Lng | Delta Distance | Current Time | Activity | Activity Confidence | Current Speed | |
|---|---|---|---|---|---|---|---|---|---|---|---|---|
| 73241 | 260217_781130_16450333_0735 | 781130 | (not set) | (not set) | 38.898254317859 | -77.02352940899 | 21.7322 | 2026-02-17 08:36:52 | unknown | 100 | -0.44703925898772 | |
| 73242 | 260217_765519_16479164_0812 | 765519 | (not set) | (not set) | 38.85806923389 | -77.049984653208 | 4.858 | 2026-02-17 08:37:01 | in_vehicle | 100 | -0.44703925898772 | |
| 73243 | 260217_781963_16497804_0707 | 781963 | (not set) | (not set) | 39.0135055 | -76.4942122 | 3.6246 | 2026-02-17 07:24:39 | in_vehicle | 100 | 1.9803839173156 | |
| 73244 | 260217_781963_16497804_0707 | 781963 | (not set) | (not set) | 39.0064978 | -76.5038554 | 4.3534 | 2026-02-17 07:29:24 | in_vehicle | 100 | 2.6017684873086 | |
| 73245 | 260217_781963_16497804_0707 | 781963 | (not set) | (not set) | 38.986602 | -76.5340442 | 6.5383 | 2026-02-17 07:32:18 | in_vehicle | 100 | 12.119234311157 | |
| 73246 | 260217_781963_16497804_0707 | 781963 | (not set) | (not set) | 38.9834382 | -76.6006701 | 10.1774 | 2026-02-17 07:35:41 | in_vehicle | 100 | 13.603404650996 | |
| 73247 | 260217_781963_16497804_0707 | 781963 | (not set) | (not set) | 38.9621266 | -76.6476299 | 13.1472 | 2026-02-17 07:38:18 | in_vehicle | 100 | 13.326240310424 | |
| 73248 | 260217_789999_16485423_0829 | 789999 | (not set) | (not set) | 38.946873490605 | -77.065231710695 | 0.2333 | 2026-02-17 08:37:12 | on_foot | 100 | 0.35763140719018 | |
| 73249 | 260217_781963_16497804_0707 | 781963 | (not set) | (not set) | 38.9532447 | -76.7364351 | 19.0013 | 2026-02-17 07:47:49 | in_vehicle | 100 | 13.661519754665 | |
| 73250 | 260217_781963_16497804_0707 | 781963 | (not set) | (not set) | 38.9440952 | -76.7975129 | 22.4142 | 2026-02-17 07:50:50 | in_vehicle | 100 | 13.764338784232 | |
| 73251 | 260217_781963_16497804_0707 | 781963 | (not set) | (not set) | 38.9441283 | -76.8751892 | 26.6294 | 2026-02-17 07:54:46 | in_vehicle | 100 | 11.618550341091 | |
| 73252 | 260217_781963_16497804_0707 | 781963 | (not set) | (not set) | 38.9232411 | -76.9044565 | 28.8415 | 2026-02-17 07:58:08 | in_vehicle | 100 | 2.0966141246524 | |
| 73253 | 260217_781963_16497804_0707 | 781963 | (not set) | (not set) | 39.027777 | -76.5029992 | 2.4854 | 2026-02-17 07:18:54 | in_vehicle | 100 | 3.4779654349245 | |
| 73254 | 260217_785331_6438355_0831 | 785331 | (not set) | (not set) | 38.944587597439 | -77.327790511084 | 3.1128 | 2026-02-17 08:37:20 | in_vehicle | 100 | 14.524305524511 | |
| 73255 | 260217_781963_16497804_0707 | 781963 | (not set) | (not set) | 38.9169134 | -76.9225746 | 29.9404 | 2026-02-17 08:02:24 | in_vehicle | 100 | 5.060484411741 | |
| 73256 | 260217_781963_16497804_0707 | 781963 | (not set) | (not set) | 38.919026 | -76.9485853 | 31.3881 | 2026-02-17 08:05:08 | in_vehicle | 100 | 5.2124777597969 | |
| 73257 | 260217_781273_16424909_0825 | 781273 | (not set) | (not set) | 38.984888392763 | -77.095101946281 | 0.5863 | 2026-02-17 08:37:24 | on_foot | 100 | -0.44703925898772 | |
| 73258 | 260217_781963_16497804_0707 | 781963 | (not set) | (not set) | 38.9025684 | -76.9949685 | 34.4959 | 2026-02-17 08:20:48 | in_vehicle | 100 | 1.0371310808515 | |
| 73259 | 260217_772498_16490104_0834 | 772498 | (not set) | (not set) | 38.883461762962 | -76.986069122175 | 0 | 2026-02-17 08:37:31 | unknown | 100 | -0.44703925898772 | |
| 73260 | 260217_755366_16487607_0753 | 755366 | (not set) | (not set) | 38.894291877579 | -77.025420162448 | 6.2998 | 2026-02-17 08:37:37 | on_bicycle | 100 | 2.4318935688932 |